Steyr, Austria
Current Conditions -  °F | °C
As of 5:20 PM on Monday 24 Nov 2014 (Local Time) from LOWL Reporting Station
Broken Clouds Broken Clouds  
Wind Chill: 39°   Ceiling: 1100
Heat Index: 39°   Visibility: 4mi
Dew Point: 37°   Wind: 2mph
Humidity: 93%   Direction: NA
Pressure: 30.24"   Gusts: NA
Location:  48.04°N, 14.41°E
Report Text: LOWL 241620Z VRB02KT 7000 FEW009 BKN011 04/03 Q1024 NOSIG
Loading
Personal Weather Stations






























Interactive Weather Map New forecast layout! Learn more

10-Day Weather Forecast

Advertisements
Track Severe Weather on mobile